Time;durP1;ratioP1;P1;durP2;ratioP2;P2;SDS_P1;SDS_P2;PMS_P1;PMS_P2;Temp;Humidity;BMP_temperature;BMP_pressure;BME280_temperature;BME280_humidity;BME280_pressure;Samples;Min_cycle;Max_cycle;Signal;HPM_P1;HPM_P2
2024/03/09 00:02:16;;;;;;;;;;;;;;;-144.99;100.00;67352.69;5099646;28;19932;-82
2024/03/09 00:04:43;;;;;;;;;;;;;;;-144.99;100.00;67352.69;5098772;28;19912;-82
2024/03/09 00:07:09;;;;;;;;;;;;;;;-144.99;100.00;67352.69;5099823;28;20166;-82
2024/03/09 00:09:36;;;;;;;;;;;;;;;-144.99;100.00;67352.69;5097350;28;19923;-82
2024/03/09 00:12:04;;;;;;;;;;;;;;;-144.99;100.00;67352.69;5098398;28;19912;-82
2024/03/09 00:14:29;;;;;;;;;;;;;;;-144.99;100.00;67352.69;5099911;28;19912;-82
2024/03/09 00:16:54;;;;;;;;;;;;;;;-144.99;100.00;67352.69;5099060;28;19987;-82
2024/03/09 00:19:20;;;;;;;;;;;;;;;-144.99;100.00;67352.69;5096784;28;19912;-82
2024/03/09 00:21:48;;;;;;;;;;;;;;;-144.99;100.00;67352.69;5097670;28;19916;-82
2024/03/09 00:24:14;;;;;;;;;;;;;;;-144.99;100.00;67352.69;5098942;28;20340;-82
2024/03/09 00:26:39;;;;;;;;;;;;;;;-144.99;100.00;67352.69;5096519;28;19916;-82
2024/03/09 00:29:04;;;;;;;;;;;;;;;-144.99;100.00;67352.69;5097700;28;19916;-82
2024/03/09 00:31:30;;;;;;;;;;;;;;;-144.99;100.00;67352.69;5096439;28;19999;-82
2024/03/09 00:33:55;;;;;;;;;;;;;;;-144.99;100.00;67352.69;5098041;28;19951;-82
2024/03/09 00:36:23;;;;;;;;;;;;;;;-144.99;100.00;67352.69;5097442;28;19986;-82
2024/03/09 00:38:48;;;;;;;;;;;;;;;-144.99;100.00;67352.69;5095768;28;20336;-81
2024/03/09 00:41:13;;;;;;;;;;;;;;;-144.99;100.00;67352.69;5093033;28;19916;-82
2024/03/09 00:43:43;;;;;;;;;;;;;;;-144.99;100.00;67352.69;5092360;28;20309;-81
2024/03/09 00:46:08;;;;;;;;;;;;;;;-144.99;100.00;67352.69;5092532;28;20194;-82
2024/03/09 00:48:35;;;;;;;;;;;;;;;-144.99;100.00;67352.69;5093140;28;19912;-82
2024/03/09 00:51:00;;;;;;;;;;;;;;;-144.99;100.00;67352.69;5094167;28;19951;-82
2024/03/09 00:53:26;;;;;;;;;;;;;;;-144.99;100.00;67352.69;5093670;28;19919;-82
2024/03/09 00:55:51;;;;;;;;;;;;;;;-144.99;100.00;67352.69;5092660;28;19954;-82
2024/03/09 00:58:19;;;;;;;;;;;;;;;-144.99;100.00;67352.69;5092003;28;19912;-82
2024/03/09 01:00:47;;;;;;;;;;;;;;;-144.99;100.00;67352.69;5094134;28;19923;-82
2024/03/09 01:03:13;;;;;;;;;;;;;;;-144.99;100.00;67352.69;5092640;28;19931;-82
2024/03/09 01:05:38;;;;;;;;;;;;;;;-144.99;100.00;67352.69;5092808;28;19963;-81
2024/03/09 01:08:04;;;;;;;;;;;;;;;-144.99;100.00;67352.69;5093874;28;19912;-82
2024/03/09 01:10:29;;;;;;;;;;;;;;;-144.99;100.00;67352.69;5092837;28;19919;-81
2024/03/09 01:12:55;;;;;;;;;;;;;;;-144.99;100.00;67352.69;5093803;28;19925;-81
2024/03/09 01:15:20;;;;;;;;;;;;;;;-144.99;100.00;67352.69;5094263;28;19912;-81
2024/03/09 01:17:46;;;;;;;;;;;;;;;-144.99;100.00;67352.69;5093976;28;19923;-81
2024/03/09 01:20:12;;;;;;;;;;;;;;;-144.99;100.00;67352.69;5091839;28;19916;-82
2024/03/09 01:22:43;;;;;;;;;;;;;;;-144.99;100.00;67352.69;5093939;28;20306;-82
2024/03/09 01:25:08;;;;;;;;;;;;;;;-144.99;100.00;67352.69;5093847;28;19916;-82
2024/03/09 01:27:35;;;;;;;;;;;;;;;-144.99;100.00;67352.69;5092222;28;20448;-82
2024/03/09 01:30:01;;;;;;;;;;;;;;;-144.99;100.00;67352.69;5091612;28;20293;-81
2024/03/09 01:32:27;;;;;;;;;;;;;;;-144.99;100.00;67352.69;5093214;28;20003;-82
2024/03/09 01:34:53;;;;;;;;;;;;;;;-144.99;100.00;67352.69;5094148;28;19951;-82
2024/03/09 01:37:22;;;;;;;;;;;;;;;-144.99;100.00;67352.69;5094155;28;19947;-82
2024/03/09 01:39:47;;;;;;;;;;;;;;;-144.99;100.00;67352.69;5093801;28;19912;-82
2024/03/09 01:42:12;;;;;;;;;;;;;;;-144.99;100.00;67352.69;5092978;28;20061;-82
2024/03/09 01:44:39;;;;;;;;;;;;;;;-144.99;100.00;67352.69;5092920;28;20393;-82
2024/03/09 01:47:07;;;;;;;;;;;;;;;-144.99;100.00;67352.69;5093825;28;19965;-82
2024/03/09 01:49:34;;;;;;;;;;;;;;;-144.99;100.00;67352.69;5091454;28;19912;-81
2024/03/09 01:51:59;;;;;;;;;;;;;;;-144.99;100.00;67352.69;5093604;28;19920;-82
2024/03/09 01:54:25;;;;;;;;;;;;;;;-144.99;100.00;67352.69;5092029;28;19920;-82
2024/03/09 01:56:50;;;;;;;;;;;;;;;-144.99;100.00;67352.69;5093186;28;20442;-82
2024/03/09 01:59:17;;;;;;;;;;;;;;;-144.99;100.00;67352.69;5092686;28;19912;-82
2024/03/09 02:01:44;;;;;;;;;;;;;;;-144.99;100.00;67352.69;5093569;28;20420;-82
2024/03/09 02:04:10;;;;;;;;;;;;;;;-144.99;100.00;67352.69;5093802;28;19916;-82
2024/03/09 02:06:35;;;;;;;;;;;;;;;-144.99;100.00;67352.69;5092080;28;19992;-82
2024/03/09 02:09:07;;;;;;;;;;;;;;;-144.99;100.00;67352.69;5091855;28;19981;-82
2024/03/09 02:11:32;;;;;;;;;;;;;;;-144.99;100.00;67352.69;5094247;28;20414;-82
2024/03/09 02:13:57;;;;;;;;;;;;;;;-144.99;100.00;67352.69;5092632;28;19920;-82
2024/03/09 02:16:23;;;;;;;;;;;;;;;-144.99;100.00;67352.69;5092149;28;19923;-82
2024/03/09 02:18:48;;;;;;;;;;;;;;;-144.99;100.00;67352.69;5090438;28;19998;-82
2024/03/09 02:21:17;;;;;;;;;;;;;;;-144.99;100.00;67352.69;5091030;28;19916;-82
2024/03/09 02:23:46;;;;;;;;;;;;;;;-144.99;100.00;67352.69;5091173;28;20018;-82
2024/03/09 02:26:12;;;;;;;;;;;;;;;-144.99;100.00;67352.69;5091021;28;19912;-81
2024/03/09 02:28:37;;;;;;;;;;;;;;;-144.99;100.00;67352.69;5091626;28;20470;-81
2024/03/09 02:31:05;;;;;;;;;;;;;;;-144.99;100.00;67352.69;5092687;28;20012;-82
2024/03/09 02:33:31;;;;;;;;;;;;;;;-144.99;100.00;67352.69;5092596;28;19920;-81
2024/03/09 02:35:56;;;;;;;;;;;;;;;-144.99;100.00;67352.69;5091113;28;19912;-81
2024/03/09 02:38:23;;;;;;;;;;;;;;;-144.99;100.00;67352.69;5091567;28;20264;-81
2024/03/09 02:40:50;;;;;;;;;;;;;;;-144.99;100.00;67352.69;5092652;28;19916;-81
2024/03/09 02:43:16;;;;;;;;;;;;;;;-144.99;100.00;67352.69;5092814;28;19915;-81
2024/03/09 02:45:42;;;;;;;;;;;;;;;-144.99;100.00;67352.69;5090972;28;19924;-81
2024/03/09 02:48:07;;;;;;;;;;;;;;;-144.99;100.00;67352.69;5091295;28;19913;-81
2024/03/09 02:50:33;;;;;;;;;;;;;;;-144.99;100.00;67352.69;5094592;28;19912;-81
2024/03/09 02:53:00;;;;;;;;;;;;;;;-144.99;100.00;67352.69;5100016;28;19919;-81
2024/03/09 02:55:26;;;;;;;;;;;;;;;-144.99;100.00;67352.69;5099420;28;19938;-81
2024/03/09 02:57:52;;;;;;;;;;;;;;;-144.99;100.00;67352.69;5099167;28;19988;-81
2024/03/09 03:00:23;;;;;;;;;;;;;;;-144.99;100.00;67352.69;5097259;28;19955;-81
2024/03/09 03:05:33;;;;;;;;;;;;;;;-144.99;100.00;67352.69;5102189;28;19962;-81
2024/03/09 03:07:59;;;;;;;;;;;;;;;-144.99;100.00;67352.69;5100991;28;19919;-81
2024/03/09 03:10:24;;;;;;;;;;;;;;;-144.99;100.00;67352.69;5101251;28;19912;-81
2024/03/09 03:12:49;;;;;;;;;;;;;;;-144.99;100.00;67352.69;5093119;28;19934;-81
2024/03/09 03:15:14;;;;;;;;;;;;;;;-144.99;100.00;67352.69;5101618;28;20016;-81
2024/03/09 03:17:40;;;;;;;;;;;;;;;-144.99;100.00;67352.69;5101167;28;19920;-81
2024/03/09 03:20:25;;;;;;;;;;;;;;;-144.99;100.00;67352.69;5101698;28;19923;-81
2024/03/09 03:22:50;;;;;;;;;;;;;;;-144.99;100.00;67352.69;5101149;28;19942;-80
2024/03/09 03:25:16;;;;;;;;;;;;;;;-144.99;100.00;67352.69;5100784;28;19912;-80
2024/03/09 03:27:42;;;;;;;;;;;;;;;-144.99;100.00;67352.69;5093398;28;19916;-81
2024/03/09 03:30:10;;;;;;;;;;;;;;;-144.99;100.00;67352.69;5099495;28;20053;-80
2024/03/09 03:32:39;;;;;;;;;;;;;;;-144.99;100.00;67352.69;5101083;28;20382;-80
2024/03/09 03:35:04;;;;;;;;;;;;;;;-144.99;100.00;67352.69;5098998;28;19959;-81
2024/03/09 03:37:31;;;;;;;;;;;;;;;-144.99;100.00;67352.69;5099487;28;19965;-80
2024/03/09 03:39:57;;;;;;;;;;;;;;;-144.99;100.00;67352.69;5090689;28;19916;-79
2024/03/09 03:42:23;;;;;;;;;;;;;;;-144.99;100.00;67352.69;5099158;28;19912;-80
2024/03/09 03:44:48;;;;;;;;;;;;;;;-144.99;100.00;67352.69;5091366;28;19918;-79
2024/03/09 03:47:13;;;;;;;;;;;;;;;-144.99;100.00;67352.69;5097974;28;19912;-80
2024/03/09 03:49:38;;;;;;;;;;;;;;;-144.99;100.00;67352.69;5097636;28;19963;-80
2024/03/09 03:52:04;;;;;;;;;;;;;;;-144.99;100.00;67352.69;5097819;28;19969;-80
2024/03/09 03:54:30;;;;;;;;;;;;;;;-144.99;100.00;67352.69;5099224;28;20294;-80
2024/03/09 03:56:55;;;;;;;;;;;;;;;-144.99;100.00;67352.69;5092055;28;19916;-79
2024/03/09 03:59:21;;;;;;;;;;;;;;;-144.99;100.00;67352.69;5084462;28;20272;-78
2024/03/09 04:01:46;;;;;;;;;;;;;;;-144.99;100.00;67352.69;5096426;28;20390;-80
2024/03/09 04:04:11;;;;;;;;;;;;;;;-144.99;100.00;67352.69;5097160;28;19916;-80
2024/03/09 04:06:38;;;;;;;;;;;;;;;-144.99;100.00;67352.69;5094330;28;20280;-79
2024/03/09 04:09:04;;;;;;;;;;;;;;;-144.99;100.00;67352.69;5090166;28;19932;-79
2024/03/09 04:11:33;;;;;;;;;;;;;;;-144.99;100.00;67352.69;5088272;28;20361;-79
2024/03/09 04:13:58;;;;;;;;;;;;;;;-144.99;100.00;67352.69;5085790;28;19916;-79
2024/03/09 04:16:24;;;;;;;;;;;;;;;-144.99;100.00;67352.69;5085226;28;19912;-78
2024/03/09 04:18:49;;;;;;;;;;;;;;;-144.99;100.00;67352.69;5094370;28;19912;-78
2024/03/09 04:21:16;;;;;;;;;;;;;;;-144.99;100.00;67352.69;5093314;28;19931;-78
2024/03/09 04:23:42;;;;;;;;;;;;;;;-144.99;100.00;67352.69;5086973;28;20344;-78
2024/03/09 04:26:08;;;;;;;;;;;;;;;-144.99;100.00;67352.69;5086948;28;19913;-78
2024/03/09 04:28:33;;;;;;;;;;;;;;;-144.99;100.00;67352.69;5092482;28;20041;-79
2024/03/09 04:30:59;;;;;;;;;;;;;;;-144.99;100.00;67352.69;5093849;28;19912;-78
2024/03/09 04:33:24;;;;;;;;;;;;;;;-144.99;100.00;67352.69;5085461;28;19912;-78
2024/03/09 04:35:50;;;;;;;;;;;;;;;-144.99;100.00;67352.69;5093871;28;19919;-78
2024/03/09 04:38:16;;;;;;;;;;;;;;;-144.99;100.00;67352.69;5086966;28;19916;-78
2024/03/09 04:40:43;;;;;;;;;;;;;;;-144.99;100.00;67352.69;5095001;28;19931;-78
2024/03/09 04:43:09;;;;;;;;;;;;;;;-144.99;100.00;67352.69;5096034;28;19981;-78
2024/03/09 04:45:34;;;;;;;;;;;;;;;-144.99;100.00;67352.69;5096378;28;20378;-79
2024/03/09 04:48:00;;;;;;;;;;;;;;;-144.99;100.00;67352.69;5095433;28;20396;-78
2024/03/09 04:50:26;;;;;;;;;;;;;;;-144.99;100.00;67352.69;5096547;28;19951;-78
2024/03/09 04:52:52;;;;;;;;;;;;;;;-144.99;100.00;67352.69;5097550;28;20413;-79
2024/03/09 04:55:42;;;;;;;;;;;;;;;-144.99;100.00;67352.69;5096264;28;19979;-78
2024/03/09 04:58:17;;;;;;;;;;;;;;;-144.99;100.00;67352.69;5089516;28;19973;-79
2024/03/09 05:00:43;;;;;;;;;;;;;;;-144.99;100.00;67352.69;5096766;28;19926;-78
2024/03/09 05:03:12;;;;;;;;;;;;;;;-144.99;100.00;67352.69;5098276;28;19975;-78
2024/03/09 05:05:37;;;;;;;;;;;;;;;-144.99;100.00;67352.69;5096760;28;19971;-78
2024/03/09 05:08:04;;;;;;;;;;;;;;;-144.99;100.00;67352.69;5097655;28;19947;-79
2024/03/09 05:10:30;;;;;;;;;;;;;;;-144.99;100.00;67352.69;5098175;28;20010;-79
2024/03/09 05:12:56;;;;;;;;;;;;;;;-144.99;100.00;67352.69;5097073;28;19959;-78
2024/03/09 05:15:31;;;;;;;;;;;;;;;-144.99;100.00;67352.69;5097356;28;19912;-78
2024/03/09 05:17:58;;;;;;;;;;;;;;;-144.99;100.00;67352.69;5096997;28;20332;-78
2024/03/09 05:20:24;;;;;;;;;;;;;;;-144.99;100.00;67352.69;5095689;28;19917;-78
2024/03/09 05:22:53;;;;;;;;;;;;;;;-144.99;100.00;67352.69;5096073;28;20405;-78
2024/03/09 05:25:18;;;;;;;;;;;;;;;-144.99;100.00;67352.69;5096862;28;19913;-78
2024/03/09 05:27:44;;;;;;;;;;;;;;;-144.99;100.00;67352.69;5096319;28;20389;-78
2024/03/09 05:30:15;;;;;;;;;;;;;;;-144.99;100.00;67352.69;5094842;28;19912;-77
2024/03/09 05:32:41;;;;;;;;;;;;;;;-144.99;100.00;67352.69;5095151;28;19913;-78
2024/03/09 05:35:11;;;;;;;;;;;;;;;-144.99;100.00;67352.69;5095670;28;19979;-78
2024/03/09 05:37:37;;;;;;;;;;;;;;;-144.99;100.00;67352.69;5095772;28;19912;-78
2024/03/09 05:40:05;;;;;;;;;;;;;;;-144.99;100.00;67352.69;5094536;28;19922;-78
2024/03/09 05:42:31;;;;;;;;;;;;;;;-144.99;100.00;67352.69;5092923;28;19920;-78
2024/03/09 05:44:56;;;;;;;;;;;;;;;-144.99;100.00;67352.69;5094386;28;19934;-78
2024/03/09 05:47:21;;;;;;;;;;;;;;;-144.99;100.00;67352.69;5094379;28;19967;-78
2024/03/09 05:49:46;;;;;;;;;;;;;;;-144.99;100.00;67352.69;5092462;28;19916;-78
2024/03/09 05:52:12;;;;;;;;;;;;;;;-144.99;100.00;67352.69;5093946;28;19912;-78
2024/03/09 05:54:37;;;;;;;;;;;;;;;-144.99;100.00;67352.69;5088582;28;20299;-78
2024/03/09 05:57:03;;;;;;;;;;;;;;;-144.99;100.00;67352.69;5093655;28;19919;-78
2024/03/09 05:59:28;;;;;;;;;;;;;;;-144.99;100.00;67352.69;5093031;28;20409;-78
2024/03/09 06:01:53;;;;;;;;;;;;;;;-144.99;100.00;67352.69;5093613;28;19916;-78
2024/03/09 06:04:20;;;;;;;;;;;;;;;-144.99;100.00;67352.69;5093941;28;19916;-78
2024/03/09 06:06:45;;;;;;;;;;;;;;;-144.99;100.00;67352.69;5093685;28;19999;-77
2024/03/09 06:09:13;;;;;;;;;;;;;;;-144.99;100.00;67352.69;5091782;28;20064;-78
2024/03/09 06:11:40;;;;;;;;;;;;;;;-144.99;100.00;67352.69;5093931;28;20371;-78
2024/03/09 06:14:06;;;;;;;;;;;;;;;-144.99;100.00;67352.69;5093904;28;20640;-78
2024/03/09 06:16:33;;;;;;;;;;;;;;;-144.99;100.00;67352.69;5093320;28;19916;-78
2024/03/09 06:18:59;;;;;;;;;;;;;;;-144.99;100.00;67352.69;5091284;28;19916;-78
2024/03/09 06:21:24;;;;;;;;;;;;;;;-144.99;100.00;67352.69;5091640;28;19916;-78
2024/03/09 06:23:49;;;;;;;;;;;;;;;-144.99;100.00;67352.69;5092178;28;19912;-78
2024/03/09 06:26:14;;;;;;;;;;;;;;;-144.99;100.00;67352.69;5091518;28;19919;-78
2024/03/09 06:28:41;;;;;;;;;;;;;;;-144.99;100.00;67352.69;5092139;28;19920;-78
2024/03/09 06:31:08;;;;;;;;;;;;;;;-144.99;100.00;67352.69;5092693;28;19923;-77
2024/03/09 06:33:33;;;;;;;;;;;;;;;-144.99;100.00;67352.69;5091724;28;19912;-77
2024/03/09 06:36:04;;;;;;;;;;;;;;;-144.99;100.00;67352.69;5092921;28;19919;-77
2024/03/09 06:38:30;;;;;;;;;;;;;;;-144.99;100.00;67352.69;5089989;28;19912;-77
2024/03/09 06:40:55;;;;;;;;;;;;;;;-144.99;100.00;67352.69;5093201;28;20074;-77
2024/03/09 06:43:21;;;;;;;;;;;;;;;-144.99;100.00;67352.69;5092532;28;20045;-77
2024/03/09 06:45:48;;;;;;;;;;;;;;;-144.99;100.00;67352.69;5091289;28;20290;-77
2024/03/09 06:48:14;;;;;;;;;;;;;;;-144.99;100.00;67352.69;5093151;28;20394;-78
2024/03/09 06:50:44;;;;;;;;;;;;;;;-144.99;100.00;67352.69;5091802;28;19912;-77
2024/03/09 06:53:10;;;;;;;;;;;;;;;-144.99;100.00;67352.69;5092445;28;20389;-78
2024/03/09 06:55:35;;;;;;;;;;;;;;;-144.99;100.00;67352.69;5091322;28;20090;-77
2024/03/09 06:58:03;;;;;;;;;;;;;;;-144.99;100.00;67352.69;5092611;28;19912;-78
2024/03/09 07:00:29;;;;;;;;;;;;;;;-144.99;100.00;67352.69;5092033;28;20363;-77
2024/03/09 07:02:58;;;;;;;;;;;;;;;-144.99;100.00;67352.69;5090950;28;19999;-77
2024/03/09 07:05:24;;;;;;;;;;;;;;;-144.99;100.00;67352.69;5091180;28;19916;-78
2024/03/09 07:07:50;;;;;;;;;;;;;;;-144.99;100.00;67352.69;5092966;28;19919;-78
2024/03/09 07:10:16;;;;;;;;;;;;;;;-144.99;100.00;67352.69;5092016;28;19947;-77
2024/03/09 07:12:42;;;;;;;;;;;;;;;-144.99;100.00;67352.69;5091179;28;20006;-78
2024/03/09 07:15:17;;;;;;;;;;;;;;;-144.99;100.00;67352.69;5091214;28;20007;-77
2024/03/09 07:17:43;;;;;;;;;;;;;;;-144.99;100.00;67352.69;5087154;28;20371;-78
2024/03/09 07:20:12;;;;;;;;;;;;;;;-144.99;100.00;67352.69;5081055;28;19924;-77
2024/03/09 07:22:39;;;;;;;;;;;;;;;-144.99;100.00;67352.69;5092283;28;19919;-78
2024/03/09 07:25:05;;;;;;;;;;;;;;;-144.99;100.00;67352.69;5091430;28;20293;-78
2024/03/09 07:27:30;;;;;;;;;;;;;;;-144.99;100.00;67352.69;5091067;28;19912;-78
2024/03/09 07:29:55;;;;;;;;;;;;;;;-144.99;100.00;67352.69;5073403;28;19989;-78
2024/03/09 07:32:22;;;;;;;;;;;;;;;-144.99;100.00;67352.69;5069149;28;19912;-78
2024/03/09 07:34:47;;;;;;;;;;;;;;;-144.99;100.00;67352.69;5092325;28;19912;-78
2024/03/09 07:37:13;;;;;;;;;;;;;;;-144.99;100.00;67352.69;5092180;28;19935;-78
2024/03/09 07:39:38;;;;;;;;;;;;;;;-144.99;100.00;67352.69;5091592;28;19965;-78
2024/03/09 07:42:03;;;;;;;;;;;;;;;-144.99;100.00;67352.69;5092138;28;19916;-77
2024/03/09 07:44:31;;;;;;;;;;;;;;;-144.99;100.00;67352.69;5092468;28;20438;-77
2024/03/09 07:46:56;;;;;;;;;;;;;;;-144.99;100.00;67352.69;5091046;28;19922;-78
2024/03/09 07:49:22;;;;;;;;;;;;;;;-144.99;100.00;67352.69;5092798;28;19912;-77
2024/03/09 07:51:47;;;;;;;;;;;;;;;-144.99;100.00;67352.69;5096096;28;19916;-79
2024/03/09 07:54:13;;;;;;;;;;;;;;;-144.99;100.00;67352.69;5096658;28;19912;-78
2024/03/09 07:56:39;;;;;;;;;;;;;;;-144.99;100.00;67352.69;5096872;28;20290;-78
2024/03/09 07:59:07;;;;;;;;;;;;;;;-144.99;100.00;67352.69;5087727;28;19916;-79
2024/03/09 08:01:32;;;;;;;;;;;;;;;-144.99;100.00;67352.69;5094225;28;20401;-78
2024/03/09 08:03:58;;;;;;;;;;;;;;;-144.99;100.00;67352.69;5093900;28;19920;-78
2024/03/09 08:06:23;;;;;;;;;;;;;;;-144.99;100.00;67352.69;5085436;28;19966;-79
2024/03/09 08:08:48;;;;;;;;;;;;;;;-144.99;100.00;67352.69;5084881;28;20403;-79
2024/03/09 08:11:16;;;;;;;;;;;;;;;-144.99;100.00;67352.69;5087468;28;19920;-79
2024/03/09 08:13:42;;;;;;;;;;;;;;;-144.99;100.00;67352.69;5085759;28;19920;-79
2024/03/09 08:16:07;;;;;;;;;;;;;;;-144.99;100.00;67352.69;5083679;28;19912;-80
2024/03/09 08:18:32;;;;;;;;;;;;;;;-144.99;100.00;67352.69;5068500;28;19944;-80
2024/03/09 08:20:58;;;;;;;;;;;;;;;-144.99;100.00;67352.69;5056289;28;19972;-80
2024/03/09 08:23:23;;;;;;;;;;;;;;;-144.99;100.00;67352.69;5071999;28;19962;-81
2024/03/09 08:25:49;;;;;;;;;;;;;;;-144.99;100.00;67352.69;5063432;28;19912;-82
2024/03/09 08:28:14;;;;;;;;;;;;;;;-144.99;100.00;67352.69;5075362;28;20343;-81
2024/03/09 08:30:40;;;;;;;;;;;;;;;-144.99;100.00;67352.69;5081077;28;19913;-82
2024/03/09 08:33:06;;;;;;;;;;;;;;;-144.99;100.00;67352.69;5066643;28;20441;-83
2024/03/09 08:35:33;;;;;;;;;;;;;;;-144.99;100.00;67352.69;5095357;28;19912;-82
2024/03/09 08:37:58;;;;;;;;;;;;;;;-144.99;100.00;67352.69;5069968;28;19912;-82
2024/03/09 08:40:25;;;;;;;;;;;;;;;-144.99;100.00;67352.69;5062967;28;20449;-82
2024/03/09 08:42:54;;;;;;;;;;;;;;;-144.99;100.00;67352.69;5075175;28;19947;-82
2024/03/09 08:45:20;;;;;;;;;;;;;;;-144.99;100.00;67352.69;5097289;28;20378;-82
2024/03/09 08:47:46;;;;;;;;;;;;;;;-144.99;100.00;67352.69;5095131;28;19916;-83
2024/03/09 08:50:11;;;;;;;;;;;;;;;-144.99;100.00;67352.69;5064519;28;19982;-83
2024/03/09 08:52:40;;;;;;;;;;;;;;;-144.99;100.00;67352.69;5069150;28;20015;-84
2024/03/09 08:55:10;;;;;;;;;;;;;;;-144.99;100.00;67352.69;5061679;28;20406;-84
2024/03/09 08:57:39;;;;;;;;;;;;;;;-144.99;100.00;67352.69;5074697;28;20336;-83
2024/03/09 09:00:05;;;;;;;;;;;;;;;-144.99;100.00;67352.69;5095290;28;20020;-83
2024/03/09 09:02:31;;;;;;;;;;;;;;;-144.99;100.00;67352.69;5065055;28;20461;-84
2024/03/09 09:04:56;;;;;;;;;;;;;;;-144.99;100.00;67352.69;5058487;28;19917;-84
2024/03/09 09:07:21;;;;;;;;;;;;;;;-144.99;100.00;67352.69;5060470;28;19935;-82
2024/03/09 09:09:47;;;;;;;;;;;;;;;-144.99;100.00;67352.69;5078742;28;19962;-83
2024/03/09 09:12:12;;;;;;;;;;;;;;;-144.99;100.00;67352.69;5093616;28;19912;-82
2024/03/09 09:14:37;;;;;;;;;;;;;;;-144.99;100.00;67352.69;5073636;28;19913;-82
2024/03/09 09:17:06;;;;;;;;;;;;;;;-144.99;100.00;67352.69;5056942;28;20003;-83
2024/03/09 09:19:32;;;;;;;;;;;;;;;-144.99;100.00;67352.69;5056335;28;20004;-82
2024/03/09 09:21:57;;;;;;;;;;;;;;;-144.99;100.00;67352.69;5055127;28;20025;-85
2024/03/09 09:24:24;;;;;;;;;;;;;;;-144.99;100.00;67352.69;5065025;28;19921;-82
2024/03/09 09:26:50;;;;;;;;;;;;;;;-144.99;100.00;67352.69;5057921;28;19917;-82
2024/03/09 09:29:15;;;;;;;;;;;;;;;-144.99;100.00;67352.69;5052417;28;20457;-82
2024/03/09 09:31:40;;;;;;;;;;;;;;;-144.99;100.00;67352.69;5057364;28;19924;-82
2024/03/09 09:34:07;;;;;;;;;;;;;;;-144.99;100.00;67352.69;5060405;28;20390;-82
2024/03/09 09:36:32;;;;;;;;;;;;;;;-144.99;100.00;67352.69;5064481;28;19913;-82
2024/03/09 09:39:01;;;;;;;;;;;;;;;-144.99;100.00;67352.69;5062365;28;19917;-83
2024/03/09 09:41:29;;;;;;;;;;;;;;;-144.99;100.00;67352.69;5087859;28;19942;-84
2024/03/09 09:43:58;;;;;;;;;;;;;;;-144.99;100.00;67352.69;5091485;28;19919;-83
2024/03/09 09:46:27;;;;;;;;;;;;;;;-144.99;100.00;67352.69;5092838;28;20007;-82
2024/03/09 09:48:52;;;;;;;;;;;;;;;-144.99;100.00;67352.69;5092402;28;20448;-83
2024/03/09 09:51:22;;;;;;;;;;;;;;;-144.99;100.00;67352.69;5093077;28;19912;-81
2024/03/09 09:53:49;;;;;;;;;;;;;;;-144.99;100.00;67352.69;5092293;28;19912;-81
2024/03/09 09:56:14;;;;;;;;;;;;;;;-144.99;100.00;67352.69;5095222;28;19911;-81
2024/03/09 09:58:39;;;;;;;;;;;;;;;-144.99;100.00;67352.69;5094054;28;19923;-81
2024/03/09 10:01:05;;;;;;;;;;;;;;;-144.99;100.00;67352.69;5095243;28;19923;-82
2024/03/09 10:03:31;;;;;;;;;;;;;;;-144.99;100.00;67352.69;5095314;28;19915;-82
2024/03/09 10:05:57;;;;;;;;;;;;;;;-144.99;100.00;67352.69;5094249;28;19941;-81
2024/03/09 10:08:22;;;;;;;;;;;;;;;-144.99;100.00;67352.69;5094098;28;19912;-81
2024/03/09 10:10:48;;;;;;;;;;;;;;;-144.99;100.00;67352.69;5098076;28;19923;-82
2024/03/09 10:13:15;;;;;;;;;;;;;;;-144.99;100.00;67352.69;5093948;28;19955;-81
2024/03/09 10:15:41;;;;;;;;;;;;;;;-144.99;100.00;67352.69;5094293;28;20007;-81
2024/03/09 10:18:07;;;;;;;;;;;;;;;-144.99;100.00;67352.69;5094106;28;19923;-81
2024/03/09 10:20:34;;;;;;;;;;;;;;;-144.99;100.00;67352.69;5095580;28;20007;-81
2024/03/09 10:23:03;;;;;;;;;;;;;;;-144.99;100.00;67352.69;5095255;28;19956;-81
2024/03/09 10:25:30;;;;;;;;;;;;;;;-144.99;100.00;67352.69;5093681;28;19944;-81
2024/03/09 10:27:56;;;;;;;;;;;;;;;-144.99;100.00;67352.69;5088136;28;20385;-81
2024/03/09 10:30:23;;;;;;;;;;;;;;;-144.99;100.00;67352.69;5092809;28;19975;-81
2024/03/09 10:32:48;;;;;;;;;;;;;;;-144.99;100.00;67352.69;5094458;28;20390;-81
2024/03/09 10:35:14;;;;;;;;;;;;;;;-144.99;100.00;67352.69;5092347;28;19912;-81
2024/03/09 10:37:40;;;;;;;;;;;;;;;-144.99;100.00;67352.69;5084339;28;20268;-81
2024/03/09 10:40:16;;;;;;;;;;;;;;;-144.99;100.00;67352.69;5092840;28;19962;-81
2024/03/09 10:42:43;;;;;;;;;;;;;;;-144.99;100.00;67352.69;5093273;28;19920;-81
2024/03/09 10:45:11;;;;;;;;;;;;;;;-144.99;100.00;67352.69;5093346;28;19912;-81
2024/03/09 10:47:39;;;;;;;;;;;;;;;-144.99;100.00;67352.69;5092980;28;19912;-81
2024/03/09 10:50:09;;;;;;;;;;;;;;;-144.99;100.00;67352.69;5093786;28;19912;-81
2024/03/09 10:52:38;;;;;;;;;;;;;;;-144.99;100.00;67352.69;5094570;28;19912;-81
2024/03/09 10:55:09;;;;;;;;;;;;;;;-144.99;100.00;67352.69;5092585;28;20362;-81
2024/03/09 10:57:37;;;;;;;;;;;;;;;-144.99;100.00;67352.69;5094586;28;19912;-81
2024/03/09 11:00:02;;;;;;;;;;;;;;;-144.99;100.00;67352.69;5091405;28;20472;-81
2024/03/09 11:02:28;;;;;;;;;;;;;;;-144.99;100.00;67352.69;5094162;28;19999;-81
2024/03/09 11:04:54;;;;;;;;;;;;;;;-144.99;100.00;67352.69;5092704;28;20004;-81
2024/03/09 11:07:22;;;;;;;;;;;;;;;-144.99;100.00;67352.69;5092473;28;19912;-82
2024/03/09 11:09:52;;;;;;;;;;;;;;;-144.99;100.00;67352.69;5092085;28;19955;-81
2024/03/09 11:12:19;;;;;;;;;;;;;;;-144.99;100.00;67352.69;5092643;28;19965;-81
2024/03/09 11:14:48;;;;;;;;;;;;;;;-144.99;100.00;67352.69;5092303;28;19924;-81
2024/03/09 11:17:13;;;;;;;;;;;;;;;-144.99;100.00;67352.69;5091487;28;19919;-82
2024/03/09 11:19:43;;;;;;;;;;;;;;;-144.99;100.00;67352.69;5075285;28;19913;-81
2024/03/09 11:22:08;;;;;;;;;;;;;;;-144.99;100.00;67352.69;5082183;28;20014;-81
2024/03/09 11:24:39;;;;;;;;;;;;;;;-144.99;100.00;67352.69;5092702;28;19952;-81
2024/03/09 11:27:05;;;;;;;;;;;;;;;-144.99;100.00;67352.69;5092983;28;19991;-81
2024/03/09 11:29:36;;;;;;;;;;;;;;;-144.99;100.00;67352.69;5094601;28;19965;-81
2024/03/09 11:32:02;;;;;;;;;;;;;;;-144.99;100.00;67352.69;5102226;28;19919;-82
2024/03/09 11:34:27;;;;;;;;;;;;;;;-144.99;100.00;67352.69;5103559;28;19912;-81
2024/03/09 11:36:53;;;;;;;;;;;;;;;-144.99;100.00;67352.69;5102968;28;19919;-81
2024/03/09 11:39:22;;;;;;;;;;;;;;;-144.99;100.00;67352.69;5102138;28;19938;-82
2024/03/09 11:41:48;;;;;;;;;;;;;;;-144.99;100.00;67352.69;5101409;28;19916;-81
2024/03/09 11:44:21;;;;;;;;;;;;;;;-144.99;100.00;67352.69;5103178;28;19988;-81
2024/03/09 11:46:50;;;;;;;;;;;;;;;-144.99;100.00;67352.69;5097610;28;19923;-81
2024/03/09 11:49:18;;;;;;;;;;;;;;;-144.99;100.00;67352.69;5097227;28;19920;-81
2024/03/09 11:51:44;;;;;;;;;;;;;;;-144.99;100.00;67352.69;5103757;28;19912;-81
2024/03/09 11:54:10;;;;;;;;;;;;;;;-144.99;100.00;67352.69;5103146;28;19983;-83
2024/03/09 11:56:36;;;;;;;;;;;;;;;-144.99;100.00;67352.69;5102384;28;19920;-81
2024/03/09 11:59:02;;;;;;;;;;;;;;;-144.99;100.00;67352.69;5102795;28;19919;-81
2024/03/09 12:01:28;;;;;;;;;;;;;;;-144.99;100.00;67352.69;5096989;28;19916;-81
2024/03/09 12:03:58;;;;;;;;;;;;;;;-144.99;100.00;67352.69;5101322;28;19920;-82
2024/03/09 12:06:23;;;;;;;;;;;;;;;-144.99;100.00;67352.69;5101519;28;19943;-81
2024/03/09 12:08:50;;;;;;;;;;;;;;;-144.99;100.00;67352.69;5103231;28;19912;-81
2024/03/09 12:11:17;;;;;;;;;;;;;;;-144.99;100.00;67352.69;5103379;28;20057;-81
2024/03/09 12:13:42;;;;;;;;;;;;;;;-144.99;100.00;67352.69;5095074;28;19913;-81
2024/03/09 12:16:07;;;;;;;;;;;;;;;-144.99;100.00;67352.69;5102144;28;19938;-82
2024/03/09 12:18:34;;;;;;;;;;;;;;;-144.99;100.00;67352.69;5102324;28;19916;-81